sensor_id;sensor_type;location;lat;lon;timestamp;P1;durP1;ratioP1;P2;durP2;ratioP2
14789;SDS011;7486;51.010;10.366;2023-02-27T00:01:39;2.27;;;1.30;;
14789;SDS011;7486;51.010;10.366;2023-02-27T00:04:06;1.40;;;1.20;;
14789;SDS011;7486;51.010;10.366;2023-02-27T00:06:33;1.40;;;1.10;;
14789;SDS011;7486;51.010;10.366;2023-02-27T00:08:59;1.60;;;1.10;;
14789;SDS011;7486;51.010;10.366;2023-02-27T00:11:26;1.43;;;1.03;;
14789;SDS011;7486;51.010;10.366;2023-02-27T00:13:54;2.50;;;1.37;;
14789;SDS011;7486;51.010;10.366;2023-02-27T00:16:21;1.23;;;1.13;;
14789;SDS011;7486;51.010;10.366;2023-02-27T00:18:47;2.43;;;1.10;;
14789;SDS011;7486;51.010;10.366;2023-02-27T00:21:14;1.07;;;1.03;;
14789;SDS011;7486;51.010;10.366;2023-02-27T00:23:40;1.20;;;0.97;;
14789;SDS011;7486;51.010;10.366;2023-02-27T00:26:07;1.20;;;1.00;;
14789;SDS011;7486;51.010;10.366;2023-02-27T00:28:34;1.53;;;1.13;;
14789;SDS011;7486;51.010;10.366;2023-02-27T00:31:02;2.60;;;1.20;;
14789;SDS011;7486;51.010;10.366;2023-02-27T00:33:29;2.50;;;1.20;;
14789;SDS011;7486;51.010;10.366;2023-02-27T00:35:56;1.53;;;1.30;;
14789;SDS011;7486;51.010;10.366;2023-02-27T00:38:58;1.70;;;1.57;;
14789;SDS011;7486;51.010;10.366;2023-02-27T00:41:43;2.70;;;1.10;;
14789;SDS011;7486;51.010;10.366;2023-02-27T00:44:29;1.07;;;0.97;;
14789;SDS011;7486;51.010;10.366;2023-02-27T00:47:14;2.37;;;1.40;;
14789;SDS011;7486;51.010;10.366;2023-02-27T00:49:59;3.10;;;1.20;;
14789;SDS011;7486;51.010;10.366;2023-02-27T00:52:45;1.67;;;1.20;;
14789;SDS011;7486;51.010;10.366;2023-02-27T00:55:30;3.07;;;1.60;;
14789;SDS011;7486;51.010;10.366;2023-02-27T00:58:16;2.30;;;1.30;;
14789;SDS011;7486;51.010;10.366;2023-02-27T01:01:01;1.40;;;1.30;;
14789;SDS011;7486;51.010;10.366;2023-02-27T01:03:46;1.97;;;1.47;;
14789;SDS011;7486;51.010;10.366;2023-02-27T01:06:32;2.47;;;1.50;;
14789;SDS011;7486;51.010;10.366;2023-02-27T01:09:17;1.87;;;1.40;;
14789;SDS011;7486;51.010;10.366;2023-02-27T01:12:03;2.60;;;1.30;;
14789;SDS011;7486;51.010;10.366;2023-02-27T01:14:49;1.60;;;1.33;;
14789;SDS011;7486;51.010;10.366;2023-02-27T01:17:34;1.80;;;1.20;;
14789;SDS011;7486;51.010;10.366;2023-02-27T01:20:21;2.27;;;1.30;;
14789;SDS011;7486;51.010;10.366;2023-02-27T01:23:06;1.97;;;1.30;;
14789;SDS011;7486;51.010;10.366;2023-02-27T01:25:52;1.27;;;1.03;;
14789;SDS011;7486;51.010;10.366;2023-02-27T01:28:37;2.00;;;1.40;;
14789;SDS011;7486;51.010;10.366;2023-02-27T01:31:22;1.90;;;1.10;;
14789;SDS011;7486;51.010;10.366;2023-02-27T01:34:08;1.93;;;1.27;;
14789;SDS011;7486;51.010;10.366;2023-02-27T01:36:53;1.40;;;1.30;;
14789;SDS011;7486;51.010;10.366;2023-02-27T01:39:39;1.87;;;1.30;;
14789;SDS011;7486;51.010;10.366;2023-02-27T01:42:25;2.13;;;1.33;;
14789;SDS011;7486;51.010;10.366;2023-02-27T01:48:14;1.77;;;1.00;;
14789;SDS011;7486;51.010;10.366;2023-02-27T01:51:02;1.67;;;1.33;;
14789;SDS011;7486;51.010;10.366;2023-02-27T01:53:52;1.47;;;1.10;;
14789;SDS011;7486;51.010;10.366;2023-02-27T01:56:38;2.83;;;1.70;;
14789;SDS011;7486;51.010;10.366;2023-02-27T01:59:26;2.40;;;1.50;;
14789;SDS011;7486;51.010;10.366;2023-02-27T02:02:16;1.40;;;1.30;;
14789;SDS011;7486;51.010;10.366;2023-02-27T02:05:06;2.57;;;1.37;;
14789;SDS011;7486;51.010;10.366;2023-02-27T02:07:51;1.40;;;1.30;;
14789;SDS011;7486;51.010;10.366;2023-02-27T02:10:37;1.50;;;1.23;;
14789;SDS011;7486;51.010;10.366;2023-02-27T02:13:24;1.60;;;1.20;;
14789;SDS011;7486;51.010;10.366;2023-02-27T02:16:15;4.13;;;1.30;;
14789;SDS011;7486;51.010;10.366;2023-02-27T02:19:19;3.33;;;1.30;;
14789;SDS011;7486;51.010;10.366;2023-02-27T02:31:07;2.13;;;1.60;;
14789;SDS011;7486;51.010;10.366;2023-02-27T02:43:25;2.00;;;1.30;;
14789;SDS011;7486;51.010;10.366;2023-02-27T02:49:33;1.50;;;1.40;;
14789;SDS011;7486;51.010;10.366;2023-02-27T02:52:48;1.30;;;1.20;;
14789;SDS011;7486;51.010;10.366;2023-02-27T02:55:52;1.70;;;1.30;;
14789;SDS011;7486;51.010;10.366;2023-02-27T03:01:43;2.03;;;1.30;;
14789;SDS011;7486;51.010;10.366;2023-02-27T03:04:40;1.20;;;1.10;;
14789;SDS011;7486;51.010;10.366;2023-02-27T03:10:29;1.80;;;1.40;;
14789;SDS011;7486;51.010;10.366;2023-02-27T03:13:23;1.30;;;1.20;;
14789;SDS011;7486;51.010;10.366;2023-02-27T03:16:15;1.70;;;1.30;;
14789;SDS011;7486;51.010;10.366;2023-02-27T03:22:05;1.33;;;1.23;;
14789;SDS011;7486;51.010;10.366;2023-02-27T03:24:54;1.60;;;1.50;;
14789;SDS011;7486;51.010;10.366;2023-02-27T03:27:48;2.60;;;1.40;;
14789;SDS011;7486;51.010;10.366;2023-02-27T03:33:37;4.37;;;1.53;;
14789;SDS011;7486;51.010;10.366;2023-02-27T03:39:25;1.77;;;1.50;;
14789;SDS011;7486;51.010;10.366;2023-02-27T03:42:36;3.10;;;1.37;;
14789;SDS011;7486;51.010;10.366;2023-02-27T03:45:36;2.10;;;1.30;;
14789;SDS011;7486;51.010;10.366;2023-02-27T03:48:25;1.43;;;1.30;;
14789;SDS011;7486;51.010;10.366;2023-02-27T03:51:12;1.40;;;1.30;;
14789;SDS011;7486;51.010;10.366;2023-02-27T03:57:03;2.43;;;1.30;;
14789;SDS011;7486;51.010;10.366;2023-02-27T03:59:50;2.00;;;1.23;;
14789;SDS011;7486;51.010;10.366;2023-02-27T04:02:36;1.40;;;1.20;;
14789;SDS011;7486;51.010;10.366;2023-02-27T04:05:23;2.17;;;1.20;;
14789;SDS011;7486;51.010;10.366;2023-02-27T04:12:10;1.50;;;1.37;;
14789;SDS011;7486;51.010;10.366;2023-02-27T04:18:09;3.23;;;1.30;;
14789;SDS011;7486;51.010;10.366;2023-02-27T04:21:09;2.53;;;1.37;;
14789;SDS011;7486;51.010;10.366;2023-02-27T04:26:45;1.60;;;1.50;;
14789;SDS011;7486;51.010;10.366;2023-02-27T04:33:03;2.07;;;1.50;;
14789;SDS011;7486;51.010;10.366;2023-02-27T04:35:53;2.67;;;1.70;;
14789;SDS011;7486;51.010;10.366;2023-02-27T04:38:45;1.90;;;1.60;;
14789;SDS011;7486;51.010;10.366;2023-02-27T04:41:40;2.10;;;1.80;;
14789;SDS011;7486;51.010;10.366;2023-02-27T04:44:31;1.90;;;1.63;;
14789;SDS011;7486;51.010;10.366;2023-02-27T04:47:19;2.03;;;1.70;;
14789;SDS011;7486;51.010;10.366;2023-02-27T04:50:09;1.70;;;1.60;;
14789;SDS011;7486;51.010;10.366;2023-02-27T04:53:01;2.70;;;1.80;;
14789;SDS011;7486;51.010;10.366;2023-02-27T04:56:08;3.07;;;1.60;;
14789;SDS011;7486;51.010;10.366;2023-02-27T04:59:02;2.37;;;1.50;;
14789;SDS011;7486;51.010;10.366;2023-02-27T05:04:46;2.57;;;1.73;;
14789;SDS011;7486;51.010;10.366;2023-02-27T05:07:34;2.13;;;1.50;;
14789;SDS011;7486;51.010;10.366;2023-02-27T05:10:27;2.03;;;1.73;;
14789;SDS011;7486;51.010;10.366;2023-02-27T05:13:33;3.70;;;1.40;;
14789;SDS011;7486;51.010;10.366;2023-02-27T05:16:38;2.20;;;1.30;;
14789;SDS011;7486;51.010;10.366;2023-02-27T05:19:29;1.63;;;1.27;;
14789;SDS011;7486;51.010;10.366;2023-02-27T05:28:19;1.67;;;1.40;;
14789;SDS011;7486;51.010;10.366;2023-02-27T05:31:17;1.40;;;1.30;;
14789;SDS011;7486;51.010;10.366;2023-02-27T05:34:24;2.17;;;1.30;;
14789;SDS011;7486;51.010;10.366;2023-02-27T05:37:22;2.53;;;1.13;;
14789;SDS011;7486;51.010;10.366;2023-02-27T05:40:18;1.33;;;1.20;;
14789;SDS011;7486;51.010;10.366;2023-02-27T05:43:18;1.27;;;1.20;;
14789;SDS011;7486;51.010;10.366;2023-02-27T05:46:12;1.97;;;1.10;;
14789;SDS011;7486;51.010;10.366;2023-02-27T05:49:03;2.97;;;1.37;;
14789;SDS011;7486;51.010;10.366;2023-02-27T05:51:54;1.73;;;1.37;;
14789;SDS011;7486;51.010;10.366;2023-02-27T05:55:06;2.17;;;1.40;;
14789;SDS011;7486;51.010;10.366;2023-02-27T06:01:14;1.10;;;0.93;;
14789;SDS011;7486;51.010;10.366;2023-02-27T06:03:59;1.90;;;1.40;;
14789;SDS011;7486;51.010;10.366;2023-02-27T06:06:45;3.37;;;1.40;;
14789;SDS011;7486;51.010;10.366;2023-02-27T06:09:31;3.00;;;1.70;;
14789;SDS011;7486;51.010;10.366;2023-02-27T06:12:17;1.60;;;1.50;;
14789;SDS011;7486;51.010;10.366;2023-02-27T06:15:03;3.00;;;1.57;;
14789;SDS011;7486;51.010;10.366;2023-02-27T06:17:48;2.07;;;1.40;;
14789;SDS011;7486;51.010;10.366;2023-02-27T06:20:34;1.70;;;1.50;;
14789;SDS011;7486;51.010;10.366;2023-02-27T06:23:20;1.87;;;1.47;;
14789;SDS011;7486;51.010;10.366;2023-02-27T06:26:05;2.00;;;1.50;;
14789;SDS011;7486;51.010;10.366;2023-02-27T06:28:51;1.60;;;1.37;;
14789;SDS011;7486;51.010;10.366;2023-02-27T06:31:36;3.60;;;1.43;;
14789;SDS011;7486;51.010;10.366;2023-02-27T06:34:22;3.20;;;1.40;;
14789;SDS011;7486;51.010;10.366;2023-02-27T06:37:07;2.37;;;1.47;;
14789;SDS011;7486;51.010;10.366;2023-02-27T06:39:53;1.40;;;1.30;;
14789;SDS011;7486;51.010;10.366;2023-02-27T06:42:41;2.53;;;1.60;;
14789;SDS011;7486;51.010;10.366;2023-02-27T06:45:28;2.60;;;1.60;;
14789;SDS011;7486;51.010;10.366;2023-02-27T06:48:13;2.27;;;1.50;;
14789;SDS011;7486;51.010;10.366;2023-02-27T06:50:58;3.83;;;1.70;;
14789;SDS011;7486;51.010;10.366;2023-02-27T06:53:43;2.47;;;1.50;;
14789;SDS011;7486;51.010;10.366;2023-02-27T06:56:29;2.90;;;1.60;;
14789;SDS011;7486;51.010;10.366;2023-02-27T06:59:14;2.30;;;1.70;;
14789;SDS011;7486;51.010;10.366;2023-02-27T07:02:00;2.43;;;1.40;;
14789;SDS011;7486;51.010;10.366;2023-02-27T07:04:45;1.80;;;1.60;;
14789;SDS011;7486;51.010;10.366;2023-02-27T07:07:31;1.93;;;1.57;;
14789;SDS011;7486;51.010;10.366;2023-02-27T07:10:22;1.67;;;1.50;;
14789;SDS011;7486;51.010;10.366;2023-02-27T07:13:07;2.00;;;1.60;;
14789;SDS011;7486;51.010;10.366;2023-02-27T07:15:53;4.13;;;1.60;;
14789;SDS011;7486;51.010;10.366;2023-02-27T07:18:38;2.80;;;1.93;;
14789;SDS011;7486;51.010;10.366;2023-02-27T07:21:23;1.97;;;1.87;;
14789;SDS011;7486;51.010;10.366;2023-02-27T07:24:09;3.67;;;1.80;;
14789;SDS011;7486;51.010;10.366;2023-02-27T07:26:55;4.23;;;1.63;;
14789;SDS011;7486;51.010;10.366;2023-02-27T07:29:41;2.50;;;1.93;;
14789;SDS011;7486;51.010;10.366;2023-02-27T07:32:26;2.80;;;1.80;;
14789;SDS011;7486;51.010;10.366;2023-02-27T07:35:12;2.20;;;1.50;;
14789;SDS011;7486;51.010;10.366;2023-02-27T07:37:57;2.23;;;1.70;;
14789;SDS011;7486;51.010;10.366;2023-02-27T07:40:43;2.00;;;1.60;;
14789;SDS011;7486;51.010;10.366;2023-02-27T07:43:29;2.37;;;1.70;;
14789;SDS011;7486;51.010;10.366;2023-02-27T07:46:14;5.17;;;3.40;;
14789;SDS011;7486;51.010;10.366;2023-02-27T07:49:00;2.20;;;2.00;;
14789;SDS011;7486;51.010;10.366;2023-02-27T07:51:45;2.80;;;1.50;;
14789;SDS011;7486;51.010;10.366;2023-02-27T07:54:30;1.50;;;1.30;;
14789;SDS011;7486;51.010;10.366;2023-02-27T07:57:19;2.23;;;1.40;;
14789;SDS011;7486;51.010;10.366;2023-02-27T08:00:05;1.70;;;1.50;;
14789;SDS011;7486;51.010;10.366;2023-02-27T08:02:56;1.90;;;1.33;;
14789;SDS011;7486;51.010;10.366;2023-02-27T08:05:41;2.50;;;1.50;;
14789;SDS011;7486;51.010;10.366;2023-02-27T08:08:26;4.13;;;1.57;;
14789;SDS011;7486;51.010;10.366;2023-02-27T08:11:12;1.87;;;1.40;;
14789;SDS011;7486;51.010;10.366;2023-02-27T08:13:57;1.90;;;1.50;;
14789;SDS011;7486;51.010;10.366;2023-02-27T08:16:45;1.67;;;1.50;;
14789;SDS011;7486;51.010;10.366;2023-02-27T08:19:30;2.27;;;1.60;;
14789;SDS011;7486;51.010;10.366;2023-02-27T08:22:16;3.67;;;1.30;;
14789;SDS011;7486;51.010;10.366;2023-02-27T08:25:02;2.63;;;1.30;;
14789;SDS011;7486;51.010;10.366;2023-02-27T08:27:48;1.77;;;1.20;;
14789;SDS011;7486;51.010;10.366;2023-02-27T08:30:34;1.47;;;1.13;;
14789;SDS011;7486;51.010;10.366;2023-02-27T08:33:20;2.50;;;1.10;;
14789;SDS011;7486;51.010;10.366;2023-02-27T08:36:06;1.13;;;0.90;;
14789;SDS011;7486;51.010;10.366;2023-02-27T08:38:51;1.77;;;0.90;;
14789;SDS011;7486;51.010;10.366;2023-02-27T08:41:36;1.30;;;0.97;;
14789;SDS011;7486;51.010;10.366;2023-02-27T08:44:22;1.37;;;0.90;;
14789;SDS011;7486;51.010;10.366;2023-02-27T08:47:07;1.33;;;0.77;;
14789;SDS011;7486;51.010;10.366;2023-02-27T08:49:53;1.20;;;1.10;;
14789;SDS011;7486;51.010;10.366;2023-02-27T08:52:38;0.87;;;0.80;;
14789;SDS011;7486;51.010;10.366;2023-02-27T08:55:24;2.00;;;1.03;;
14789;SDS011;7486;51.010;10.366;2023-02-27T08:58:09;1.53;;;0.87;;
14789;SDS011;7486;51.010;10.366;2023-02-27T09:00:54;1.80;;;1.00;;
14789;SDS011;7486;51.010;10.366;2023-02-27T09:03:40;0.63;;;0.63;;
14789;SDS011;7486;51.010;10.366;2023-02-27T09:06:25;1.33;;;1.00;;
14789;SDS011;7486;51.010;10.366;2023-02-27T09:09:11;2.83;;;1.03;;
14789;SDS011;7486;51.010;10.366;2023-02-27T09:11:57;1.33;;;1.00;;
14789;SDS011;7486;51.010;10.366;2023-02-27T09:14:42;0.93;;;0.83;;
14789;SDS011;7486;51.010;10.366;2023-02-27T09:17:27;0.80;;;0.80;;
14789;SDS011;7486;51.010;10.366;2023-02-27T09:20:13;1.43;;;0.97;;
14789;SDS011;7486;51.010;10.366;2023-02-27T09:22:58;1.57;;;1.00;;
14789;SDS011;7486;51.010;10.366;2023-02-27T09:25:45;1.17;;;1.00;;
14789;SDS011;7486;51.010;10.366;2023-02-27T09:28:31;1.97;;;1.27;;
14789;SDS011;7486;51.010;10.366;2023-02-27T09:31:16;1.77;;;0.80;;
14789;SDS011;7486;51.010;10.366;2023-02-27T09:34:02;2.33;;;0.90;;
14789;SDS011;7486;51.010;10.366;2023-02-27T09:36:47;1.73;;;1.10;;
14789;SDS011;7486;51.010;10.366;2023-02-27T09:39:33;1.63;;;1.00;;
14789;SDS011;7486;51.010;10.366;2023-02-27T09:42:20;1.43;;;1.00;;
14789;SDS011;7486;51.010;10.366;2023-02-27T09:45:12;1.10;;;1.00;;
14789;SDS011;7486;51.010;10.366;2023-02-27T09:48:14;1.57;;;1.00;;
14789;SDS011;7486;51.010;10.366;2023-02-27T09:51:08;1.57;;;0.93;;
14789;SDS011;7486;51.010;10.366;2023-02-27T09:53:57;0.90;;;0.80;;
14789;SDS011;7486;51.010;10.366;2023-02-27T09:56:47;1.33;;;1.10;;
14789;SDS011;7486;51.010;10.366;2023-02-27T09:59:42;1.10;;;0.90;;
14789;SDS011;7486;51.010;10.366;2023-02-27T10:05:46;1.50;;;1.00;;
14789;SDS011;7486;51.010;10.366;2023-02-27T10:11:35;1.13;;;1.03;;
14789;SDS011;7486;51.010;10.366;2023-02-27T10:14:36;1.10;;;0.97;;
14789;SDS011;7486;51.010;10.366;2023-02-27T10:17:29;1.53;;;0.90;;
14789;SDS011;7486;51.010;10.366;2023-02-27T10:20:38;2.20;;;1.20;;
14789;SDS011;7486;51.010;10.366;2023-02-27T10:23:39;1.47;;;1.10;;
14789;SDS011;7486;51.010;10.366;2023-02-27T10:26:32;1.03;;;0.93;;
14789;SDS011;7486;51.010;10.366;2023-02-27T10:29:30;1.53;;;1.10;;
14789;SDS011;7486;51.010;10.366;2023-02-27T10:32:30;0.90;;;0.90;;
14789;SDS011;7486;51.010;10.366;2023-02-27T10:35:25;1.20;;;0.90;;
14789;SDS011;7486;51.010;10.366;2023-02-27T10:41:16;1.67;;;1.13;;
14789;SDS011;7486;51.010;10.366;2023-02-27T10:44:03;0.80;;;0.70;;
14789;SDS011;7486;51.010;10.366;2023-02-27T10:46:48;1.20;;;0.80;;
14789;SDS011;7486;51.010;10.366;2023-02-27T10:49:36;1.00;;;0.90;;
14789;SDS011;7486;51.010;10.366;2023-02-27T10:52:22;1.43;;;0.80;;
14789;SDS011;7486;51.010;10.366;2023-02-27T10:55:18;1.77;;;0.73;;
14789;SDS011;7486;51.010;10.366;2023-02-27T10:58:15;1.13;;;0.80;;
14789;SDS011;7486;51.010;10.366;2023-02-27T11:01:04;1.73;;;0.80;;
14789;SDS011;7486;51.010;10.366;2023-02-27T11:03:53;1.33;;;0.90;;
14789;SDS011;7486;51.010;10.366;2023-02-27T11:06:40;1.27;;;0.80;;
14789;SDS011;7486;51.010;10.366;2023-02-27T11:09:27;1.23;;;0.80;;
14789;SDS011;7486;51.010;10.366;2023-02-27T11:12:31;1.00;;;0.80;;
14789;SDS011;7486;51.010;10.366;2023-02-27T11:15:22;1.20;;;0.80;;
14789;SDS011;7486;51.010;10.366;2023-02-27T11:18:27;1.17;;;0.73;;
14789;SDS011;7486;51.010;10.366;2023-02-27T11:21:23;0.80;;;0.70;;
14789;SDS011;7486;51.010;10.366;2023-02-27T11:24:17;1.50;;;0.80;;
14789;SDS011;7486;51.010;10.366;2023-02-27T11:27:29;0.77;;;0.77;;
14789;SDS011;7486;51.010;10.366;2023-02-27T11:30:25;0.73;;;0.70;;
14789;SDS011;7486;51.010;10.366;2023-02-27T11:33:16;1.27;;;0.60;;
14789;SDS011;7486;51.010;10.366;2023-02-27T11:36:04;0.80;;;0.80;;
14789;SDS011;7486;51.010;10.366;2023-02-27T11:38:50;1.33;;;0.90;;
14789;SDS011;7486;51.010;10.366;2023-02-27T11:41:38;1.00;;;0.90;;
14789;SDS011;7486;51.010;10.366;2023-02-27T11:44:25;3.40;;;1.10;;
14789;SDS011;7486;51.010;10.366;2023-02-27T11:47:33;2.60;;;1.10;;
14789;SDS011;7486;51.010;10.366;2023-02-27T11:56:52;3.00;;;1.40;;
14789;SDS011;7486;51.010;10.366;2023-02-27T12:08:04;1.53;;;1.10;;
14789;SDS011;7486;51.010;10.366;2023-02-27T12:11:02;1.63;;;1.30;;
14789;SDS011;7486;51.010;10.366;2023-02-27T12:14:00;1.30;;;1.20;;
14789;SDS011;7486;51.010;10.366;2023-02-27T12:16:51;1.07;;;1.03;;
14789;SDS011;7486;51.010;10.366;2023-02-27T12:22:53;1.67;;;1.30;;
14789;SDS011;7486;51.010;10.366;2023-02-27T12:25:41;1.40;;;1.30;;
14789;SDS011;7486;51.010;10.366;2023-02-27T12:29:20;1.50;;;1.27;;
14789;SDS011;7486;51.010;10.366;2023-02-27T12:31:50;3.20;;;1.10;;
14789;SDS011;7486;51.010;10.366;2023-02-27T12:34:42;2.10;;;1.20;;
14789;SDS011;7486;51.010;10.366;2023-02-27T12:37:33;3.07;;;1.30;;
14789;SDS011;7486;51.010;10.366;2023-02-27T12:40:22;1.80;;;1.20;;
14789;SDS011;7486;51.010;10.366;2023-02-27T12:43:20;2.47;;;1.40;;
14789;SDS011;7486;51.010;10.366;2023-02-27T12:55:30;2.83;;;1.10;;
14789;SDS011;7486;51.010;10.366;2023-02-27T13:04:44;1.87;;;1.30;;
14789;SDS011;7486;51.010;10.366;2023-02-27T13:07:35;1.20;;;1.10;;
14789;SDS011;7486;51.010;10.366;2023-02-27T13:10:30;1.23;;;1.10;;
14789;SDS011;7486;51.010;10.366;2023-02-27T13:16:28;4.37;;;1.33;;
14789;SDS011;7486;51.010;10.366;2023-02-27T13:26:06;1.57;;;1.10;;
14789;SDS011;7486;51.010;10.366;2023-02-27T13:29:17;2.57;;;1.20;;
14789;SDS011;7486;51.010;10.366;2023-02-27T13:38:58;0.83;;;0.83;;
14789;SDS011;7486;51.010;10.366;2023-02-27T13:41:44;1.90;;;1.20;;
14789;SDS011;7486;51.010;10.366;2023-02-27T13:44:36;2.20;;;0.90;;
14789;SDS011;7486;51.010;10.366;2023-02-27T13:53:07;1.40;;;1.27;;
14789;SDS011;7486;51.010;10.366;2023-02-27T13:56:14;1.70;;;1.17;;
14789;SDS011;7486;51.010;10.366;2023-02-27T13:59:50;2.23;;;1.10;;
14789;SDS011;7486;51.010;10.366;2023-02-27T14:05:43;2.70;;;1.20;;
14789;SDS011;7486;51.010;10.366;2023-02-27T14:08:45;1.30;;;1.20;;
14789;SDS011;7486;51.010;10.366;2023-02-27T14:11:34;1.93;;;1.43;;
14789;SDS011;7486;51.010;10.366;2023-02-27T14:15:06;2.63;;;1.30;;
14789;SDS011;7486;51.010;10.366;2023-02-27T14:26:20;1.90;;;1.40;;
14789;SDS011;7486;51.010;10.366;2023-02-27T14:29:11;3.27;;;1.70;;
14789;SDS011;7486;51.010;10.366;2023-02-27T14:32:02;2.87;;;1.40;;
14789;SDS011;7486;51.010;10.366;2023-02-27T14:34:50;1.47;;;1.30;;
14789;SDS011;7486;51.010;10.366;2023-02-27T14:37:37;2.80;;;1.50;;
14789;SDS011;7486;51.010;10.366;2023-02-27T14:40:28;1.93;;;1.53;;
14789;SDS011;7486;51.010;10.366;2023-02-27T14:43:37;2.00;;;1.47;;
14789;SDS011;7486;51.010;10.366;2023-02-27T14:46:36;2.47;;;1.60;;
14789;SDS011;7486;51.010;10.366;2023-02-27T14:49:30;1.60;;;1.40;;
14789;SDS011;7486;51.010;10.366;2023-02-27T14:55:21;2.30;;;1.50;;
14789;SDS011;7486;51.010;10.366;2023-02-27T15:01:04;2.00;;;1.20;;
14789;SDS011;7486;51.010;10.366;2023-02-27T15:03:53;2.20;;;1.30;;
14789;SDS011;7486;51.010;10.366;2023-02-27T15:06:42;1.33;;;1.20;;
14789;SDS011;7486;51.010;10.366;2023-02-27T15:09:37;1.87;;;1.30;;
14789;SDS011;7486;51.010;10.366;2023-02-27T15:12:25;1.90;;;1.37;;
14789;SDS011;7486;51.010;10.366;2023-02-27T15:15:18;2.53;;;1.50;;
14789;SDS011;7486;51.010;10.366;2023-02-27T15:18:10;1.53;;;1.27;;
14789;SDS011;7486;51.010;10.366;2023-02-27T15:20:57;1.40;;;1.30;;
14789;SDS011;7486;51.010;10.366;2023-02-27T15:23:43;1.13;;;1.03;;
14789;SDS011;7486;51.010;10.366;2023-02-27T15:26:29;2.53;;;1.10;;
14789;SDS011;7486;51.010;10.366;2023-02-27T15:29:43;3.23;;;1.40;;
14789;SDS011;7486;51.010;10.366;2023-02-27T15:32:39;2.00;;;1.50;;
14789;SDS011;7486;51.010;10.366;2023-02-27T15:35:35;1.80;;;1.30;;
14789;SDS011;7486;51.010;10.366;2023-02-27T15:38:30;1.83;;;1.30;;
14789;SDS011;7486;51.010;10.366;2023-02-27T15:41:17;1.73;;;1.30;;
14789;SDS011;7486;51.010;10.366;2023-02-27T15:44:03;1.17;;;1.03;;
14789;SDS011;7486;51.010;10.366;2023-02-27T15:46:50;1.97;;;1.27;;
14789;SDS011;7486;51.010;10.366;2023-02-27T15:49:36;3.17;;;1.33;;
14789;SDS011;7486;51.010;10.366;2023-02-27T15:52:23;1.53;;;1.30;;
14789;SDS011;7486;51.010;10.366;2023-02-27T15:55:12;2.47;;;1.20;;
14789;SDS011;7486;51.010;10.366;2023-02-27T15:57:59;2.27;;;1.50;;
14789;SDS011;7486;51.010;10.366;2023-02-27T16:00:47;2.77;;;1.60;;
14789;SDS011;7486;51.010;10.366;2023-02-27T16:03:48;2.37;;;1.40;;
14789;SDS011;7486;51.010;10.366;2023-02-27T16:06:38;2.20;;;1.30;;
14789;SDS011;7486;51.010;10.366;2023-02-27T16:09:31;3.17;;;1.93;;
14789;SDS011;7486;51.010;10.366;2023-02-27T16:12:29;2.93;;;1.40;;
14789;SDS011;7486;51.010;10.366;2023-02-27T16:21:11;3.13;;;1.90;;
14789;SDS011;7486;51.010;10.366;2023-02-27T16:27:01;3.37;;;1.90;;
14789;SDS011;7486;51.010;10.366;2023-02-27T16:29:48;3.90;;;2.10;;
14789;SDS011;7486;51.010;10.366;2023-02-27T16:32:35;2.67;;;1.70;;
14789;SDS011;7486;51.010;10.366;2023-02-27T16:35:24;3.30;;;1.80;;
14789;SDS011;7486;51.010;10.366;2023-02-27T16:38:09;3.07;;;2.00;;
14789;SDS011;7486;51.010;10.366;2023-02-27T16:40:55;5.10;;;2.00;;
14789;SDS011;7486;51.010;10.366;2023-02-27T16:43:41;2.30;;;2.10;;
14789;SDS011;7486;51.010;10.366;2023-02-27T16:46:28;2.30;;;1.90;;
14789;SDS011;7486;51.010;10.366;2023-02-27T16:49:21;2.10;;;1.90;;
14789;SDS011;7486;51.010;10.366;2023-02-27T16:52:09;2.57;;;1.90;;
14789;SDS011;7486;51.010;10.366;2023-02-27T16:54:55;2.87;;;2.10;;
14789;SDS011;7486;51.010;10.366;2023-02-27T16:57:41;3.40;;;2.30;;
14789;SDS011;7486;51.010;10.366;2023-02-27T17:00:26;3.07;;;2.10;;
14789;SDS011;7486;51.010;10.366;2023-02-27T17:03:11;2.83;;;2.30;;
14789;SDS011;7486;51.010;10.366;2023-02-27T17:05:57;3.13;;;2.10;;
14789;SDS011;7486;51.010;10.366;2023-02-27T17:08:43;4.20;;;2.20;;
14789;SDS011;7486;51.010;10.366;2023-02-27T17:11:29;3.10;;;2.33;;
14789;SDS011;7486;51.010;10.366;2023-02-27T17:14:14;3.60;;;2.57;;
14789;SDS011;7486;51.010;10.366;2023-02-27T17:17:00;3.23;;;2.30;;
14789;SDS011;7486;51.010;10.366;2023-02-27T17:19:46;2.47;;;2.27;;
14789;SDS011;7486;51.010;10.366;2023-02-27T17:22:35;4.03;;;2.67;;
14789;SDS011;7486;51.010;10.366;2023-02-27T17:25:24;3.03;;;2.37;;
14789;SDS011;7486;51.010;10.366;2023-02-27T17:28:09;2.97;;;2.60;;
14789;SDS011;7486;51.010;10.366;2023-02-27T17:30:55;3.10;;;2.57;;
14789;SDS011;7486;51.010;10.366;2023-02-27T17:33:41;4.53;;;2.83;;
14789;SDS011;7486;51.010;10.366;2023-02-27T17:36:26;4.47;;;3.20;;
14789;SDS011;7486;51.010;10.366;2023-02-27T17:39:13;3.07;;;2.80;;
14789;SDS011;7486;51.010;10.366;2023-02-27T17:41:58;3.53;;;3.13;;
14789;SDS011;7486;51.010;10.366;2023-02-27T17:44:44;6.07;;;3.57;;
14789;SDS011;7486;51.010;10.366;2023-02-27T17:47:31;2.97;;;2.60;;
14789;SDS011;7486;51.010;10.366;2023-02-27T17:50:17;4.57;;;3.23;;
14789;SDS011;7486;51.010;10.366;2023-02-27T17:53:03;4.03;;;2.93;;
14789;SDS011;7486;51.010;10.366;2023-02-27T17:55:48;3.33;;;3.03;;
14789;SDS011;7486;51.010;10.366;2023-02-27T17:58:34;4.33;;;2.80;;
14789;SDS011;7486;51.010;10.366;2023-02-27T18:01:20;4.30;;;2.77;;
14789;SDS011;7486;51.010;10.366;2023-02-27T18:04:07;4.57;;;2.90;;
14789;SDS011;7486;51.010;10.366;2023-02-27T18:06:53;3.77;;;2.83;;
14789;SDS011;7486;51.010;10.366;2023-02-27T18:09:38;4.30;;;3.47;;
14789;SDS011;7486;51.010;10.366;2023-02-27T18:12:23;5.13;;;3.60;;
14789;SDS011;7486;51.010;10.366;2023-02-27T18:15:09;6.60;;;3.70;;
14789;SDS011;7486;51.010;10.366;2023-02-27T18:17:55;6.57;;;3.17;;
14789;SDS011;7486;51.010;10.366;2023-02-27T18:20:40;7.03;;;3.57;;
14789;SDS011;7486;51.010;10.366;2023-02-27T18:23:26;5.27;;;3.60;;
14789;SDS011;7486;51.010;10.366;2023-02-27T18:26:13;4.80;;;3.90;;
14789;SDS011;7486;51.010;10.366;2023-02-27T18:29:17;5.13;;;3.50;;
14789;SDS011;7486;51.010;10.366;2023-02-27T18:32:02;4.27;;;3.43;;
14789;SDS011;7486;51.010;10.366;2023-02-27T18:34:47;3.77;;;2.77;;
14789;SDS011;7486;51.010;10.366;2023-02-27T18:37:33;3.30;;;2.27;;
14789;SDS011;7486;51.010;10.366;2023-02-27T18:40:19;2.33;;;2.07;;
14789;SDS011;7486;51.010;10.366;2023-02-27T18:43:05;4.40;;;2.30;;
14789;SDS011;7486;51.010;10.366;2023-02-27T18:45:50;2.40;;;2.10;;
14789;SDS011;7486;51.010;10.366;2023-02-27T18:48:37;2.90;;;2.27;;
14789;SDS011;7486;51.010;10.366;2023-02-27T18:51:23;2.03;;;1.83;;
14789;SDS011;7486;51.010;10.366;2023-02-27T18:54:11;2.60;;;2.30;;
14789;SDS011;7486;51.010;10.366;2023-02-27T18:56:57;3.70;;;2.17;;
14789;SDS011;7486;51.010;10.366;2023-02-27T18:59:43;4.53;;;2.30;;
14789;SDS011;7486;51.010;10.366;2023-02-27T19:02:28;2.87;;;2.20;;
14789;SDS011;7486;51.010;10.366;2023-02-27T19:05:13;2.43;;;2.23;;
14789;SDS011;7486;51.010;10.366;2023-02-27T19:07:59;2.70;;;2.10;;
14789;SDS011;7486;51.010;10.366;2023-02-27T19:10:44;3.13;;;2.23;;
14789;SDS011;7486;51.010;10.366;2023-02-27T19:13:30;2.50;;;2.30;;
14789;SDS011;7486;51.010;10.366;2023-02-27T19:16:15;3.60;;;2.40;;
14789;SDS011;7486;51.010;10.366;2023-02-27T19:19:01;3.57;;;2.60;;
14789;SDS011;7486;51.010;10.366;2023-02-27T19:21:47;4.80;;;2.80;;
14789;SDS011;7486;51.010;10.366;2023-02-27T19:24:32;2.90;;;2.60;;
14789;SDS011;7486;51.010;10.366;2023-02-27T19:27:18;3.70;;;2.73;;
14789;SDS011;7486;51.010;10.366;2023-02-27T19:30:03;3.30;;;2.70;;
14789;SDS011;7486;51.010;10.366;2023-02-27T19:32:49;3.23;;;2.63;;
14789;SDS011;7486;51.010;10.366;2023-02-27T19:35:36;3.00;;;2.70;;
14789;SDS011;7486;51.010;10.366;2023-02-27T19:38:22;5.13;;;2.47;;